West Lafayette, IN

11:25 PM EST on December 09, 2016 (GMT -0500)
Prophets Ridge | | Change Station

Elev 659 ft 40.49 °N, 86.89 °W | Updated 37 seconds ago

Overcast
Overcast
23.3 °F
Feels Like 23 °F
N
3.0
Wind Variable Wind from WNW

Today
High -- | Low -- °F
--% Chance of Precip.
Yesterday
High -- | Low -- °F
Precip. -- in
Pressure 30.56 in
Visibility 10.0 miles
Clouds Overcast 3500 ft
Windchill 23 °F
Dew Point 16 °F
Humidity 74%
Rainfall 0.00 in
Snow Depth Not available.
7:59 AM 5:21 PM
Waxing Gibbous, 80% visible
METAR KLAF 100354Z AUTO 28004KT 10SM OVC035 M05/M08 A3053 RMK AO2 SLP348 T10501083
Pressure 30.56 in
Visibility 10.0 miles
Clouds Overcast 3500 ft
Windchill 23 °F
Dew Point 16 °F
Humidity 74%
Rainfall 0.00 in
Snow Depth Not available.
7:59 AM 5:21 PM
Waxing Gibbous, 80% visible
METAR KLAF 100354Z AUTO 28004KT 10SM OVC035 M05/M08 A3053 RMK AO2 SLP348 T10501083

10-Day Weather Forecast

Almanac

Astronomy

Dec. 09, 2016 Rise Set
Actual Time
Civil Twilight
Nautical Twilight
Astronomical Twilight
Moon
Length of Visible Light
Length of Day
Tomorrow will be .
, % of the Moon is Illuminated

Today's Extremes

State Highs State Lows

Community

WunderPhotos

Upload Photos

1,956,529 photos uploaded!

WunderBlog® & News

Nearby

Air Quality

  Air Quality AQ Index Pollutant
Not available.

Snow Depth

Station Depth Elevation

Earthquake Activity

City Distance Mag. Time & Date
Minimum magnitude displayed is 2.5.

Coastal Water Temperatures

Place Temperature

Stations

Nearby Weather Stations

Station Location Temp. Windchill Dew Point Humidity Wind Precip. Elev Updated Type
                   

Watches & Warnings

There are currently no watches in effect.